Centerton, AR (72719)

3:53 PM CDT on September 02, 2014 (GMT -0500)
Bentonville (Denali Park) | Change Station
CLOSE
Current Station
Personal Weather Station
Location: Bentonville, AR
Elevation: 1266 ft
Nearby Weather Stations

Elev 1266 ft 36.37 °N, 94.23 °W | Updated 7 seconds ago

Clear
Clear
78.4 °F
Feels Like 81 °F
N
0.0
Wind Variable Wind from NNW
Gusts 2.0 mph

Today
High -- | Low -- °F
--% Chance of Precip.
Yesterday
High -- | Low -- °F
Precip. -- in
6:49 AM 7:43 PM
First Quarter, 55% visible
Pressure 29.98 in
Visibility 10.0 miles
Clouds Clear
Heat Index 81 °F
Dew Point 68 °F
Humidity 71%
Rainfall 2.35 in
Snow Depth Not available.
UV 7 out of 12
Pollen 10.10 out of 12
Air Quality Not available.
Flu Activity Not available.
METAR KVBT 022035Z AUTO 00000KT 10SM CLR 26/19 A2998 RMK AO1

More Conditions Fewer Conditions

Pressure 29.98 in
Visibility 10.0 miles
Clouds Clear
Heat Index 81 °F
Dew Point 68 °F
Humidity 71%
Rainfall 2.35 in
Snow Depth Not available.
UV 7 out of 12
Pollen 10.10 out of 12
Air Quality Not available.
Flu Activity Not available.
METAR KVBT 022035Z AUTO 00000KT 10SM CLR 26/19 A2998 RMK AO1

More Conditions Fewer Conditions

10-Day Weather Forecast

Almanac

Astronomy

Sep. 02, 2014 Rise Set
Actual Time 6:49 AM CDT 7:43 PM CDT
Civil Twilight 6:23 AM CDT 8:09 PM CDT
Nautical Twilight 5:52 AM CDT 8:40 PM CDT
Astronomical Twilight 5:19 AM CDT 9:13 PM CDT
Moon 2:22 PM CDT No Moon Set
Length of Visible Light 13h 46m
Length of Day
12h 54m
Tomorrow will be 2m 13s shorter.
First Quarter, 55% of the Moon is Illuminated
Today
First Quarter
Sep 8
Full
Sep 15
Last Quarter
Sep 24
New
Oct 1
First Quarter

Today's Extremes

State Highs State Lows

Community

WunderPhotos

Upload Photos

1,749,763 photos uploaded!

WunderBlogs® & News

Nearby

Snow Depth

Station Depth Elevation
No new snow has been reported.

Earthquake Activity

City Distance Mag. Time & Date
No recent earthquake activity has been reported nearby.
Minimum magnitude displayed is 2.5.

Coastal Water Temperatures

Place Temperature
No Stations Reporting

Nearby Weather Stations